Terminal Aerodrome Forecast
Issued by NWS Twin Cities, MN

Home | Current Version | Previous Version | Graphics & Text | Print | Product List | Glossary On
Versions: 1 2 3 4 5 6 7 8 9 10 11 12 13 14 15
047
FTUS43 KMPX 031347 AAA
TAFSTC
TAF AMD
KSTC 031347Z 0314/0412 33012G17KT P6SM OVC080
     FM032200 29009KT P6SM BKN250
     FM040400 24005KT P6SM OVC100
     FM040800 22005KT P6SM OVC050 PROB30 0409/0412 2SM -SN BR
      OVC015=

USA.gov is the U.S. government's official web portal to all federal, state and local government web resources and services.